createdAt,value
2022-08-09T00:01:00.254Z,87.280273
2022-08-09T00:02:08.962Z,87.37793
2022-08-09T00:04:01.098Z,87.579346
2022-08-09T00:04:34.067Z,87.786865
2022-08-09T00:06:15.169Z,87.786865
2022-08-09T00:06:50.683Z,87.884521
2022-08-09T00:08:01.411Z,87.786865
2022-08-09T00:09:10.507Z,87.683105
2022-08-09T00:10:21.662Z,87.579346
2022-08-09T00:11:58.734Z,87.37793
2022-08-09T00:12:39.649Z,87.579346
2022-08-09T00:13:50.261Z,87.988281
2022-08-09T00:15:00.511Z,87.37793
2022-08-09T00:16:12.843Z,87.579346
2022-08-09T00:18:04.760Z,88.085938
2022-08-09T00:18:34.626Z,87.786865
2022-08-09T00:19:40.978Z,87.927246
2022-08-09T00:20:51.681Z,88.433838
2022-08-09T00:22:00.386Z,88.531494
2022-08-09T00:23:56.913Z,88.635254
2022-08-09T00:24:20.854Z,88.94043
2022-08-09T00:25:32.981Z,89.080811
2022-08-09T00:26:41.180Z,88.879395
2022-08-09T00:27:50.828Z,88.879395
2022-08-09T00:29:01.480Z,89.18457
2022-08-09T00:30:16.685Z,89.282227
2022-08-09T00:31:30.864Z,89.587402
2022-08-09T00:32:33.683Z,89.733887
2022-08-09T00:33:49.284Z,90.136719
2022-08-09T00:34:53.965Z,90.032959
2022-08-09T00:36:03.707Z,90.032959
2022-08-09T00:37:12.372Z,90.240479
2022-08-09T00:38:22.078Z,90.136719
2022-08-09T00:40:09.964Z,90.197754
2022-08-09T00:40:40.482Z,90.093994
2022-08-09T00:44:08.749Z,90.496826
2022-08-09T00:44:09.201Z,90.093994
2022-08-09T00:44:18.639Z,90.29541
2022-08-09T00:45:23.213Z,90.197754
2022-08-09T00:46:55.732Z,89.892578
2022-08-09T00:47:43.591Z,89.788818
2022-08-09T00:48:54.576Z,89.788818
2022-08-09T00:50:02.950Z,89.587402
2022-08-09T00:51:13.619Z,89.691162
2022-08-09T00:52:22.381Z,89.788818
2022-08-09T00:53:33.146Z,89.892578
2022-08-09T00:54:43.040Z,90.093994
2022-08-09T00:56:03.550Z,90.093994
2022-08-09T00:57:09.106Z,89.892578
2022-08-09T00:58:14.607Z,89.935303
2022-08-09T00:59:31.710Z,90.136719
2022-08-09T01:00:35.343Z,90.29541
2022-08-09T01:01:45.429Z,89.892578
2022-08-09T01:02:53.560Z,90.197754
2022-08-09T01:04:02.225Z,89.892578
2022-08-09T01:05:13.813Z,89.733887
2022-08-09T01:06:22.643Z,89.428711
2022-08-09T01:07:37.511Z,89.831543
2022-08-09T01:08:45.685Z,90.136719
2022-08-09T01:09:54.728Z,90.136719
2022-08-09T01:11:03.453Z,89.630127
2022-08-09T01:12:14.122Z,90.441895
2022-08-09T01:13:22.781Z,90.338135
2022-08-09T01:14:32.451Z,90.484619
2022-08-09T01:15:51.619Z,90.075684
2022-08-09T01:16:51.828Z,89.367676
2022-08-09T01:18:02.519Z,90.484619
2022-08-09T01:19:12.329Z,90.380859
2022-08-09T01:20:20.843Z,90.83252
2022-08-09T01:21:41.370Z,91.131592
2022-08-09T01:22:41.283Z,90.83252
2022-08-09T01:24:01.564Z,90.570068
2022-08-09T01:25:02.792Z,90.875244
2022-08-09T01:26:12.406Z,90.875244
2022-08-09T01:27:22.149Z,92.028809
2022-08-09T01:28:31.842Z,92.901611
2022-08-09T01:29:55.422Z,93.103027
2022-08-09T01:30:53.217Z,92.999268
2022-08-09T01:32:30.513Z,92.797852
2022-08-09T01:33:11.509Z,92.39502
2022-08-09T01:34:20.280Z,92.047119
2022-08-09T01:35:38.186Z,91.638184
2022-08-09T01:36:40.665Z,90.9729
2022-08-09T01:38:06.117Z,91.986084
2022-08-09T01:38:56.959Z,92.39502
2022-08-09T01:40:06.676Z,92.492676
2022-08-09T01:41:17.368Z,92.901611
2022-08-09T01:42:28.058Z,92.797852
2022-08-09T01:43:41.730Z,92.944336
2022-08-09T01:44:47.419Z,92.944336
2022-08-09T01:45:57.924Z,93.048096
2022-08-09T01:47:07.978Z,93.554688
2022-08-09T01:48:17.625Z,93.756104
2022-08-09T01:49:28.303Z,93.652344
2022-08-09T01:50:41.770Z,93.859863
2022-08-09T01:51:53.257Z,93.652344
2022-08-09T01:52:59.399Z,93.145752
2022-08-09T01:54:10.059Z,93.249512
2022-08-09T01:55:19.740Z,93.353271
2022-08-09T01:56:29.429Z,93.554688
2022-08-09T01:57:39.828Z,93.353271
2022-08-09T01:58:49.806Z,93.206787
2022-08-09T02:00:00.034Z,92.797852
2022-08-09T02:01:09.151Z,92.492676
2022-08-09T02:02:18.737Z,93.103027
2022-08-09T02:03:28.409Z,92.901611
2022-08-09T02:04:40.587Z,92.797852
2022-08-09T02:06:04.330Z,92.700195
2022-08-09T02:06:59.391Z,92.901611
2022-08-09T02:08:36.452Z,92.901611
2022-08-09T02:09:20.869Z,92.700195
2022-08-09T02:10:30.530Z,92.700195
2022-08-09T02:11:42.788Z,92.797852
2022-08-09T02:12:48.850Z,92.63916
2022-08-09T02:14:06.819Z,93.353271
2022-08-09T02:15:11.694Z,93.249512
2022-08-09T02:16:19.908Z,93.756104
2022-08-09T02:17:59.603Z,93.95752
2022-08-09T02:18:42.884Z,93.756104
2022-08-09T02:19:51.996Z,93.652344
2022-08-09T02:21:00.771Z,93.450928
2022-08-09T02:22:10.409Z,93.249512
2022-08-09T02:23:20.134Z,93.249512
2022-08-09T02:24:29.897Z,93.145752
2022-08-09T02:25:42.137Z,93.249512
2022-08-09T02:26:50.301Z,92.944336
2022-08-09T02:28:00.697Z,92.944336
2022-08-09T02:29:08.635Z,92.541504
2022-08-09T02:30:18.321Z,92.541504
2022-08-09T02:31:28.004Z,92.63916
2022-08-09T02:32:38.704Z,92.028809
2022-08-09T02:33:58.800Z,92.333984
2022-08-09T02:34:57.687Z,92.74292
2022-08-09T02:36:06.697Z,92.840576
2022-08-09T02:37:16.381Z,92.840576
2022-08-09T02:38:28.764Z,92.944336
2022-08-09T02:39:40.081Z,92.74292
2022-08-09T02:40:46.472Z,93.188477
2022-08-09T02:41:56.058Z,93.395996
2022-08-09T02:43:04.706Z,93.902588
2022-08-09T02:44:29.652Z,93.798828
2022-08-09T02:45:26.548Z,93.597412
2022-08-09T02:46:36.703Z,93.597412
2022-08-09T02:47:57.865Z,93.493652
2022-08-09T02:48:57.039Z,93.597412
2022-08-09T02:50:06.847Z,93.395996
2022-08-09T02:51:17.505Z,93.701172
2022-08-09T02:52:26.202Z,93.701172
2022-08-09T02:53:36.874Z,93.701172
2022-08-09T02:54:51.302Z,93.597412
2022-08-09T02:55:58.657Z,93.798828
2022-08-09T02:57:13.576Z,93.798828
2022-08-09T02:58:33.183Z,93.597412
2022-08-09T02:59:36.221Z,93.597412
2022-08-09T03:00:39.457Z,93.798828
2022-08-09T03:02:05.244Z,93.597412
2022-08-09T03:03:00.768Z,93.597412
2022-08-09T03:04:13.404Z,93.597412
2022-08-09T03:05:20.522Z,93.597412
2022-08-09T03:06:30.186Z,93.395996
2022-08-09T03:07:38.939Z,93.292236
2022-08-09T03:08:49.134Z,93.292236
2022-08-09T03:09:59.332Z,93.493652
2022-08-09T03:11:05.945Z,93.493652
2022-08-09T03:12:15.597Z,93.292236
2022-08-09T03:13:24.312Z,93.188477
2022-08-09T03:14:33.961Z,93.292236
2022-08-09T03:16:04.992Z,93.292236
2022-08-09T03:16:55.314Z,93.188477
2022-08-09T03:18:09.647Z,93.395996
2022-08-09T03:19:52.103Z,93.395996
2022-08-09T03:20:26.269Z,93.597412
2022-08-09T03:21:36.304Z,93.597412
2022-08-09T03:22:45.686Z,93.597412
2022-08-09T03:24:03.594Z,93.597412
2022-08-09T03:25:21.577Z,93.597412
2022-08-09T03:26:17.716Z,93.597412
2022-08-09T03:27:27.462Z,93.292236
2022-08-09T03:28:38.140Z,93.701172
2022-08-09T03:29:57.496Z,94.104004
2022-08-09T03:30:58.776Z,94.207764
2022-08-09T03:32:08.446Z,94.207764
2022-08-09T03:33:18.747Z,94.30542
2022-08-09T03:34:27.419Z,94.146729
2022-08-09T03:35:44.144Z,94.354248
2022-08-09T03:36:48.007Z,94.451904
2022-08-09T03:37:58.510Z,94.451904
2022-08-09T03:39:08.182Z,94.659424
2022-08-09T03:40:18.865Z,94.451904
2022-08-09T03:41:29.789Z,94.75708
2022-08-09T03:42:42.963Z,94.500732
2022-08-09T03:43:51.989Z,94.598389
2022-08-09T03:45:00.469Z,94.195557
2022-08-09T03:46:19.480Z,94.091797
2022-08-09T03:47:20.751Z,94.293213
2022-08-09T03:48:30.891Z,94.500732
2022-08-09T03:49:41.071Z,94.500732
2022-08-09T03:50:51.730Z,94.799805
2022-08-09T03:52:03.633Z,94.799805
2022-08-09T03:53:11.188Z,94.598389
2022-08-09T03:54:29.060Z,94.903564
2022-08-09T03:55:35.993Z,94.439697
2022-08-09T03:56:41.664Z,94.744873
2022-08-09T03:57:53.787Z,94.641113
2022-08-09T03:59:01.505Z,94.543457
2022-08-09T04:00:12.177Z,94.543457
2022-08-09T04:01:20.819Z,95.10498
2022-08-09T04:02:31.847Z,95.10498
2022-08-09T04:03:46.592Z,94.702148
2022-08-09T04:04:50.932Z,94.702148
2022-08-09T04:05:59.451Z,95.007324
2022-08-09T04:07:09.129Z,94.598389
2022-08-09T04:08:19.797Z,94.799805
2022-08-09T04:09:42.388Z,94.195557
2022-08-09T04:10:40.104Z,94.396973
2022-08-09T04:11:50.781Z,93.933105
2022-08-09T04:13:00.913Z,93.829346
2022-08-09T04:14:37.821Z,94.342041
2022-08-09T04:15:29.792Z,94.439697
2022-08-09T04:16:29.386Z,94.342041
2022-08-09T04:17:38.068Z,94.641113
2022-08-09T04:18:49.174Z,94.702148
2022-08-09T04:19:58.325Z,95.3125
2022-08-09T04:21:08.994Z,95.617676
2022-08-09T04:22:18.714Z,95.513916
2022-08-09T04:23:28.386Z,95.007324
2022-08-09T04:24:38.060Z,94.659424
2022-08-09T04:25:49.918Z,94.659424
2022-08-09T04:26:57.354Z,94.354248
2022-08-09T04:28:05.036Z,94.146729
2022-08-09T04:29:15.904Z,93.841553
2022-08-09T04:30:26.085Z,93.493652
2022-08-09T04:31:37.471Z,93.188477
2022-08-09T04:32:46.001Z,92.889404
2022-08-09T04:33:56.892Z,92.480469
2022-08-09T04:35:05.025Z,92.071533
2022-08-09T04:36:15.667Z,91.827393
2022-08-09T04:37:42.338Z,91.625977
2022-08-09T04:38:35.005Z,91.320801
2022-08-09T04:39:49.172Z,91.522217
2022-08-09T04:40:56.514Z,91.625977
2022-08-09T04:42:03.979Z,91.522217
2022-08-09T04:43:15.138Z,91.729736
2022-08-09T04:44:24.367Z,91.625977
2022-08-09T04:45:35.901Z,91.625977
2022-08-09T04:46:57.888Z,91.625977
2022-08-09T04:47:59.606Z,91.827393
2022-08-09T04:49:05.912Z,91.625977
2022-08-09T04:50:15.547Z,91.931152
2022-08-09T04:51:24.189Z,92.39502
2022-08-09T04:52:34.151Z,90.875244
2022-08-09T04:53:42.559Z,91.174316
2022-08-09T04:54:53.180Z,91.680908
2022-08-09T04:56:01.837Z,91.784668
2022-08-09T04:57:12.234Z,91.540527
2022-08-09T04:58:22.251Z,90.72876
2022-08-09T04:59:31.913Z,90.930176
2022-08-09T05:00:41.575Z,90.887451
2022-08-09T05:01:51.211Z,90.2771
2022-08-09T05:02:59.863Z,90.075684
2022-08-09T05:04:10.626Z,89.874268
2022-08-09T05:05:31.709Z,89.935303
2022-08-09T05:06:35.271Z,89.630127
2022-08-09T05:07:40.497Z,89.831543
2022-08-09T05:08:50.201Z,90.338135
2022-08-09T05:10:01.689Z,89.324951
2022-08-09T05:11:09.519Z,89.227295
2022-08-09T05:12:21.043Z,88.983154
2022-08-09T05:13:32.848Z,89.080811
2022-08-09T05:14:41.096Z,88.879395
2022-08-09T05:15:52.424Z,88.635254
2022-08-09T05:17:00.830Z,88.531494
2022-08-09T05:18:40.010Z,88.433838
2022-08-09T05:19:24.590Z,87.420654
2022-08-09T05:20:32.710Z,87.72583
2022-08-09T05:21:46.924Z,88.128662
2022-08-09T05:23:55.064Z,87.420654
2022-08-09T05:24:04.619Z,88.024902
2022-08-09T05:25:12.362Z,88.330078
2022-08-09T05:26:26.576Z,88.128662
2022-08-09T05:27:33.705Z,87.420654
2022-08-09T05:28:44.374Z,87.219238
2022-08-09T05:29:53.047Z,87.72583
2022-08-09T05:31:09.367Z,88.128662
2022-08-09T05:32:13.417Z,88.739014
2022-08-09T05:33:26.253Z,88.128662
2022-08-09T05:34:33.857Z,88.531494
2022-08-09T05:35:46.820Z,88.189697
2022-08-09T05:36:53.169Z,88.189697
2022-08-09T05:38:02.852Z,87.988281
2022-08-09T05:39:12.577Z,88.189697
2022-08-09T05:40:23.269Z,88.391113
2022-08-09T05:41:32.009Z,88.348389
2022-08-09T05:42:40.695Z,88.043213
2022-08-09T05:43:51.352Z,88.146973
2022-08-09T05:44:59.081Z,87.902832
2022-08-09T05:46:07.778Z,87.39624
2022-08-09T05:47:17.410Z,88.006592
2022-08-09T05:48:33.108Z,88.104248
2022-08-09T05:50:24.827Z,88.104248
2022-08-09T05:50:56.891Z,87.39624
2022-08-09T05:51:59.960Z,87.5
2022-08-09T05:53:11.683Z,87.658691
2022-08-09T05:54:20.282Z,87.658691
2022-08-09T05:55:31.199Z,86.853027
2022-08-09T05:56:39.698Z,86.14502
2022-08-09T05:57:57.224Z,86.248779
2022-08-09T05:59:00.066Z,86.712646
2022-08-09T06:00:08.733Z,86.206055
2022-08-09T06:01:18.380Z,86.914062
2022-08-09T06:02:28.151Z,86.810303
2022-08-09T06:03:44.269Z,86.566162
2022-08-09T06:04:47.379Z,86.364746
2022-08-09T06:06:04.801Z,85.662842
2022-08-09T06:07:09.284Z,85.559082
2022-08-09T06:08:24.297Z,85.864258
2022-08-09T06:09:41.002Z,85.217285
2022-08-09T06:10:39.903Z,85.516357
2022-08-09T06:11:56.729Z,85.217285
2022-08-09T06:13:03.274Z,85.314941
2022-08-09T06:14:09.908Z,85.217285
2022-08-09T06:15:20.552Z,84.613037
2022-08-09T06:16:30.207Z,84.27124
2022-08-09T06:17:40.883Z,83.966064
2022-08-09T06:18:50.552Z,83.868408
2022-08-09T06:19:59.325Z,83.660889
2022-08-09T06:21:09.026Z,83.825684
2022-08-09T06:22:22.467Z,83.319092
2022-08-09T06:23:55.991Z,83.117676
2022-08-09T06:24:40.997Z,82.91626
2022-08-09T06:25:49.674Z,83.02002
2022-08-09T06:26:59.373Z,83.520508
2022-08-09T06:28:08.075Z,83.422852
2022-08-09T06:29:17.714Z,83.587646
2022-08-09T06:30:27.422Z,83.184814
2022-08-09T06:31:39.475Z,83.184814
2022-08-09T06:32:53.806Z,82.537842
2022-08-09T06:33:58.329Z,82.23877
2022-08-09T06:35:07.094Z,82.13501
2022-08-09T06:36:15.717Z,82.13501
2022-08-09T06:37:28.830Z,81.030273
2022-08-09T06:38:37.567Z,81.390381
2022-08-09T06:39:48.917Z,81.591797
2022-08-09T06:40:58.290Z,80.487061
2022-08-09T06:42:11.295Z,80.145264
2022-08-09T06:43:18.709Z,79.541016
2022-08-09T06:44:27.365Z,80.108643
2022-08-09T06:46:05.602Z,79.80957
2022-08-09T06:46:47.700Z,79.766846
2022-08-09T06:47:58.097Z,79.669189
2022-08-09T06:49:07.027Z,79.064941
2022-08-09T06:50:16.772Z,78.729248
2022-08-09T06:51:23.447Z,77.825928
2022-08-09T06:52:33.297Z,76.68457
2022-08-09T06:53:41.817Z,76.885986
2022-08-09T06:54:54.028Z,76.544189
2022-08-09T06:56:02.282Z,76.147461
2022-08-09T06:57:11.240Z,75.006104
2022-08-09T06:58:41.023Z,75.10376
2022-08-09T07:00:48.187Z,74.468994
2022-08-09T07:00:53.503Z,74.56665
2022-08-09T07:01:54.848Z,74.432373
2022-08-09T07:03:02.363Z,73.730469
2022-08-09T07:04:12.048Z,73.297119
2022-08-09T07:05:22.720Z,72.393799
2022-08-09T07:06:32.411Z,71.862793
2022-08-09T07:07:59.182Z,70.922852
2022-08-09T07:08:52.715Z,71.228027
2022-08-09T07:10:12.776Z,70.092773
2022-08-09T07:11:17.767Z,70.892334
2022-08-09T07:12:37.948Z,69.592285
2022-08-09T07:13:44.872Z,70.056152
2022-08-09T07:14:45.171Z,69.561768
2022-08-09T07:16:40.307Z,67.425537
2022-08-09T07:17:08.137Z,67.926025
2022-08-09T07:18:16.152Z,66.699219
2022-08-09T07:19:25.861Z,66.564941
2022-08-09T07:20:35.516Z,65.167236
2022-08-09T07:21:50.228Z,64.068604
2022-08-09T07:22:57.065Z,65.06958
2022-08-09T07:24:05.501Z,64.935303
2022-08-09T07:25:16.187Z,63.140869
2022-08-09T07:26:24.848Z,64.141846
2022-08-09T07:27:42.500Z,63.61084
2022-08-09T07:29:01.213Z,63.378906
2022-08-09T07:29:56.912Z,62.585449
2022-08-09T07:31:04.585Z,62.780762
2022-08-09T07:32:14.259Z,62.255859
2022-08-09T07:33:23.258Z,62.054443
2022-08-09T07:34:33.745Z,61.358643
2022-08-09T07:35:53.766Z,61.456299
2022-08-09T07:36:50.857Z,62.554932
2022-08-09T07:38:00.500Z,63.122559
2022-08-09T07:39:11.760Z,62.420654
2022-08-09T07:40:20.438Z,61.828613
2022-08-09T07:41:32.799Z,61.102295
2022-08-09T07:42:39.271Z,61.199951
2022-08-09T07:43:50.207Z,61.468506
2022-08-09T07:45:01.691Z,61.669922
2022-08-09T07:46:09.214Z,60.345459
2022-08-09T07:47:20.975Z,59.448242
2022-08-09T07:48:30.874Z,59.0271
2022-08-09T07:49:52.481Z,59.490967
2022-08-09T07:50:52.897Z,59.960938
2022-08-09T07:52:04.026Z,59.466553
2022-08-09T07:53:12.406Z,58.343506
2022-08-09T07:54:27.790Z,56.854248
2022-08-09T07:55:41.176Z,58.441162
2022-08-09T07:56:44.780Z,56.756592
2022-08-09T07:57:55.076Z,56.982422
2022-08-09T07:59:12.717Z,57.354736
2022-08-09T08:00:20.424Z,57.452393
2022-08-09T08:01:25.511Z,56.951904
2022-08-09T08:02:36.252Z,57.15332
2022-08-09T08:03:46.968Z,56.231689
2022-08-09T08:04:56.312Z,56.109619
2022-08-09T08:06:07.033Z,55.212402
2022-08-09T08:07:57.287Z,53.430176
2022-08-09T08:08:44.945Z,54.547119
2022-08-09T08:09:42.528Z,54.150391
2022-08-09T08:10:48.789Z,54.620361
2022-08-09T08:12:11.933Z,53.430176
2022-08-09T08:13:10.371Z,53.924561
2022-08-09T08:14:20.991Z,54.125977
2022-08-09T08:15:29.369Z,53.234863
2022-08-09T08:16:40.038Z,53.631592
2022-08-09T08:17:54.390Z,53.729248
2022-08-09T08:19:02.699Z,53.826904
2022-08-09T08:20:12.770Z,54.492188
2022-08-09T08:21:21.246Z,53.704834
2022-08-09T08:22:29.272Z,54.467773
2022-08-09T08:23:38.924Z,53.155518
2022-08-09T08:24:49.194Z,53.35083
2022-08-09T08:26:06.798Z,52.337646
2022-08-09T08:27:06.925Z,53.00293
2022-08-09T08:28:18.086Z,52.11792
2022-08-09T08:29:28.553Z,52.435303
2022-08-09T08:30:39.027Z,52.215576
2022-08-09T08:32:02.939Z,51.226807
2022-08-09T08:32:59.159Z,49.938965
2022-08-09T08:34:09.824Z,51.12915
2022-08-09T08:35:19.471Z,51.623535
2022-08-09T08:36:30.639Z,50.213623
2022-08-09T08:37:40.876Z,50.213623
2022-08-09T08:38:50.428Z,50.506592
2022-08-09T08:40:01.152Z,49.023438
2022-08-09T08:41:10.780Z,50.878906
2022-08-09T08:42:19.432Z,50.091553
2022-08-09T08:43:30.076Z,50.286865
2022-08-09T08:44:39.802Z,49.621582
2022-08-09T08:45:50.817Z,50.585938
2022-08-09T08:47:03.434Z,50.189209
2022-08-09T08:48:10.783Z,49.200439
2022-08-09T08:49:20.412Z,49.987793
2022-08-09T08:50:31.113Z,50.384521
2022-08-09T08:51:42.005Z,49.694824
2022-08-09T08:52:53.214Z,48.706055
2022-08-09T08:54:02.809Z,49.597168
2022-08-09T08:55:13.560Z,48.901367
2022-08-09T08:56:25.162Z,49.102783
2022-08-09T08:57:34.643Z,49.005127
2022-08-09T08:58:44.523Z,49.597168
2022-08-09T08:59:53.771Z,49.865723
2022-08-09T09:01:01.909Z,50.067139
2022-08-09T09:02:12.036Z,47.991943
2022-08-09T09:03:32.991Z,48.388672
2022-08-09T09:04:37.693Z,49.67041
2022-08-09T09:05:59.235Z,46.728516
2022-08-09T09:06:53.843Z,47.320557
2022-08-09T09:08:03.544Z,48.486328
2022-08-09T09:09:21.377Z,47.692871
2022-08-09T09:10:24.826Z,47.772217
2022-08-09T09:11:38.399Z,46.97876
2022-08-09T09:12:44.137Z,47.277832
2022-08-09T09:13:56.116Z,45.721436
2022-08-09T09:15:05.177Z,46.014404
2022-08-09T09:16:13.178Z,46.014404
2022-08-09T09:17:23.836Z,45.52002
2022-08-09T09:18:34.487Z,46.21582
2022-08-09T09:19:44.177Z,46.807861
2022-08-09T09:20:53.853Z,47.570801
2022-08-09T09:22:03.908Z,46.661377
2022-08-09T09:23:14.234Z,46.563721
2022-08-09T09:24:22.861Z,46.246338
2022-08-09T09:26:02.723Z,45.355225
2022-08-09T09:26:44.186Z,44.98291
2022-08-09T09:28:04.656Z,45.281982
2022-08-09T09:29:10.396Z,45.892334
2022-08-09T09:30:31.503Z,46.484375
2022-08-09T09:32:04.187Z,46.783447
2022-08-09T09:32:37.556Z,46.166992
2022-08-09T09:33:47.060Z,45.574951
2022-08-09T09:34:55.682Z,45.10498
2022-08-09T09:36:11.868Z,45.202637
2022-08-09T09:37:16.022Z,46.97876
2022-08-09T09:38:27.732Z,45.300293
2022-08-09T09:39:43.068Z,46.685791
2022-08-09T09:40:47.055Z,45.672607
2022-08-09T09:41:57.729Z,44.787598
2022-08-09T09:43:05.394Z,43.585205
2022-08-09T09:44:25.227Z,43.188477
2022-08-09T09:45:29.648Z,45.727539
2022-08-09T09:46:42.014Z,44.647217
2022-08-09T09:47:47.945Z,44.030762
2022-08-09T09:48:56.815Z,43.444824
2022-08-09T09:50:07.643Z,43.640137
2022-08-09T09:51:18.780Z,45.3125
2022-08-09T09:52:33.567Z,44.329834
2022-08-09T09:53:44.247Z,44.897461
2022-08-09T09:54:54.817Z,45.983887
2022-08-09T09:56:04.030Z,45.092773
2022-08-09T09:58:00.367Z,45.092773
2022-08-09T09:58:20.208Z,44.403076
2022-08-09T09:59:29.731Z,45.3125
2022-08-09T10:00:40.388Z,45.507812
2022-08-09T10:01:51.075Z,45.782471
2022-08-09T10:02:58.823Z,45.3125
2022-08-09T10:04:09.940Z,46.002197
2022-08-09T10:05:21.713Z,45.135498
2022-08-09T10:06:27.750Z,45.831299
2022-08-09T10:07:38.584Z,45.751953
2022-08-09T10:08:54.651Z,46.740723
2022-08-09T10:09:59.865Z,46.246338
2022-08-09T10:11:31.013Z,46.813965
2022-08-09T10:12:28.301Z,46.911621
2022-08-09T10:13:43.017Z,45.019531
2022-08-09T10:14:40.443Z,46.30127
2022-08-09T10:16:09.372Z,45.709229
2022-08-09T10:17:11.757Z,45.904541
2022-08-09T10:18:12.357Z,46.496582
2022-08-09T10:19:23.434Z,45.507812
2022-08-09T10:20:32.789Z,44.720459
2022-08-09T10:21:42.309Z,45.611572
2022-08-09T10:22:56.124Z,44.525146
2022-08-09T10:24:03.826Z,44.720459
2022-08-09T10:25:13.927Z,44.42749
2022-08-09T10:26:24.721Z,45.3125
2022-08-09T10:27:34.501Z,46.594238
2022-08-09T10:28:45.563Z,45.880127
2022-08-09T10:30:29.834Z,46.179199
2022-08-09T10:32:21.213Z,45.782471
2022-08-09T10:32:42.883Z,45.782471
2022-08-09T10:33:30.128Z,45.410156
2022-08-09T10:34:36.577Z,46.868896
2022-08-09T10:35:45.203Z,46.66748
2022-08-09T10:36:54.932Z,46.276855
2022-08-09T10:38:04.644Z,46.154785
2022-08-09T10:39:16.257Z,46.350098
2022-08-09T10:40:33.579Z,44.775391
2022-08-09T10:41:35.624Z,44.189453
2022-08-09T10:42:45.807Z,45.861816
2022-08-09T10:43:58.993Z,45.861816
2022-08-09T10:45:10.768Z,44.87915
2022-08-09T10:46:21.101Z,44.87915
2022-08-09T10:48:12.210Z,44.482422
2022-08-09T10:48:38.636Z,43.615723
2022-08-09T10:49:50.647Z,44.134521
2022-08-09T10:50:58.941Z,45.489502
2022-08-09T10:52:06.583Z,44.995117
2022-08-09T10:53:17.222Z,44.604492
2022-08-09T10:54:27.918Z,44.30542
2022-08-09T10:55:54.964Z,44.012451
2022-08-09T10:56:48.307Z,44.030762
2022-08-09T10:57:59.761Z,44.274902
2022-08-09T10:59:05.731Z,45.574951
2022-08-09T11:00:16.431Z,45.556641
2022-08-09T11:03:03.683Z,45.532227
2022-08-09T11:03:07.156Z,44.445801
2022-08-09T11:03:51.069Z,45.019531
2022-08-09T11:04:58.031Z,44.897461
2022-08-09T11:06:08.653Z,44.110107
2022-08-09T11:07:17.338Z,43.615723
2022-08-09T11:08:30.121Z,43.518066
2022-08-09T11:09:37.746Z,43.103027
2022-08-09T11:10:53.498Z,43.182373
2022-08-09T11:11:59.203Z,42.987061
2022-08-09T11:13:09.895Z,42.687988
2022-08-09T11:14:27.911Z,42.712402
2022-08-09T11:15:33.919Z,43.572998
2022-08-09T11:16:41.214Z,43.182373
2022-08-09T11:17:53.139Z,43.377686
2022-08-09T11:19:02.198Z,43.280029
2022-08-09T11:20:20.086Z,43.280029
2022-08-09T11:21:23.513Z,43.87207
2022-08-09T11:22:32.189Z,44.049072
2022-08-09T11:23:43.525Z,44.342041
2022-08-09T11:24:52.516Z,41.96167
2022-08-09T11:26:02.162Z,41.491699
2022-08-09T11:27:11.809Z,41.784668
2022-08-09T11:28:27.694Z,42.175293
2022-08-09T11:30:04.133Z,41.687012
2022-08-09T11:30:47.899Z,42.669678
2022-08-09T11:31:55.042Z,41.668701
2022-08-09T11:33:03.036Z,42.156982
2022-08-09T11:34:12.695Z,41.564941
2022-08-09T11:35:26.397Z,41.687012
2022-08-09T11:36:35.793Z,43.164062
2022-08-09T11:37:43.150Z,42.376709
2022-08-09T11:38:53.387Z,42.449951
2022-08-09T11:40:03.091Z,42.547607
2022-08-09T11:41:13.298Z,41.094971
2022-08-09T11:42:22.683Z,41.97998
2022-08-09T11:43:32.140Z,41.394043
2022-08-09T11:44:41.464Z,41.369629
2022-08-09T11:45:51.368Z,40.802002
2022-08-09T11:46:59.273Z,41.97998
2022-08-09T11:48:17.395Z,41.394043
2022-08-09T11:49:27.927Z,41.766357
2022-08-09T11:50:52.736Z,39.880371
2022-08-09T11:52:49.930Z,39.898682
2022-08-09T11:53:03.802Z,41.192627
2022-08-09T11:54:12.710Z,41.467285
2022-08-09T11:55:22.385Z,41.271973
2022-08-09T11:56:41.313Z,40.863037
2022-08-09T11:57:47.126Z,41.644287
2022-08-09T11:58:53.956Z,40.466309
2022-08-09T12:00:02.802Z,41.235352
2022-08-09T12:01:15.800Z,41.448975
2022-08-09T12:02:34.960Z,40.838623
2022-08-09T12:03:54.930Z,40.740967
2022-08-09T12:04:44.094Z,40.740967
2022-08-09T12:05:55.168Z,40.722656
2022-08-09T12:07:04.103Z,40.234375
2022-08-09T12:08:17.030Z,40.997314
2022-08-09T12:09:24.214Z,40.997314
2022-08-09T12:10:39.192Z,40.209961
2022-08-09T12:12:02.798Z,39.703369
2022-08-09T12:12:55.836Z,39.624023
2022-08-09T12:14:28.883Z,39.72168
2022-08-09T12:15:17.559Z,39.916992
2022-08-09T12:16:30.924Z,40.881348
2022-08-09T12:17:42.025Z,40.509033
2022-08-09T12:18:53.776Z,40.014648
2022-08-09T12:20:00.547Z,39.605713
2022-08-09T12:21:10.967Z,39.428711
2022-08-09T12:22:21.456Z,39.72168
2022-08-09T12:23:47.807Z,39.526367
2022-08-09T12:24:42.197Z,39.898682
2022-08-09T12:25:52.027Z,39.508057
2022-08-09T12:29:00.985Z,41.821289
2022-08-09T12:29:01.191Z,39.72168
2022-08-09T12:29:32.944Z,40.936279
2022-08-09T12:30:35.911Z,40.527344
2022-08-09T12:31:59.596Z,39.642334
2022-08-09T12:32:53.723Z,40.130615
2022-08-09T12:34:03.707Z,39.935303
2022-08-09T12:35:13.489Z,40.545654
2022-08-09T12:36:27.939Z,41.137695
2022-08-09T12:37:44.365Z,40.545654
2022-08-09T12:38:45.585Z,41.680908
2022-08-09T12:39:56.475Z,39.73999
2022-08-09T12:41:07.166Z,40.429688
2022-08-09T12:42:17.172Z,40.332031
2022-08-09T12:44:04.581Z,40.917969
2022-08-09T12:44:38.807Z,40.429688
2022-08-09T12:45:59.512Z,41.387939
2022-08-09T12:47:01.364Z,40.429688
2022-08-09T12:48:20.330Z,41.998291
2022-08-09T12:49:22.287Z,39.935303
2022-08-09T12:50:31.361Z,39.935303
2022-08-09T12:51:52.334Z,40.307617
2022-08-09T12:53:09.711Z,39.819336
2022-08-09T12:54:04.530Z,39.331055
2022-08-09T12:56:13.617Z,39.215088
2022-08-09T12:56:39.838Z,39.72168
2022-08-09T12:57:38.667Z,39.526367
2022-08-09T12:58:50.684Z,39.916992
2022-08-09T13:00:02.993Z,39.4104
2022-08-09T13:01:07.803Z,38.525391
2022-08-09T13:02:17.875Z,38.995361
2022-08-09T13:03:28.434Z,38.800049
2022-08-09T13:04:39.004Z,38.214111
2022-08-09T13:05:50.975Z,38.879395
2022-08-09T13:06:57.809Z,37.902832
2022-08-09T13:08:06.862Z,39.27002
2022-08-09T13:09:16.903Z,38.000488
2022-08-09T13:10:26.913Z,38.116455
2022-08-09T13:11:39.119Z,39.367676
2022-08-09T13:13:09.279Z,38.781738
2022-08-09T13:14:12.073Z,37.390137
2022-08-09T13:15:09.598Z,37.591553
2022-08-09T13:16:18.097Z,37.805176
2022-08-09T13:17:44.664Z,38.568115
2022-08-09T13:18:37.445Z,37.689209
2022-08-09T13:20:06.691Z,38.568115
2022-08-09T13:21:04.572Z,38.568115
2022-08-09T13:22:34.938Z,37.963867